Startpagina
METAR-TAF:

METAR-TAF

Vliegvelden :

Northolt, Engeland

breedte: 51-33N, lengte: 000-25W, hoogte: 38 m

Actueel weer

Dit bericht is 1 uur en het 20 minuten geleden gemaakt, om 03:50 UTC
Wind 6 kt uit het noordnoordoosten
Temperatuur 12°C
Vochtigheid 82%
Druk 1021 hPa
Zicht 10 km of meer

METAR: EGWU 020350Z AUTO 03006KT 9999 // NCD 12/09 Q1021

Tijdstip: 06:10 (05:10 UTC)

Verwachting

Dit bericht is 9 uur en het 42 minuten geleden gemaakt, om 19:28 UTC
Verwachting geldig van 01 om 21 UTC tot 02 om 15 UTC
Wind 8 kt uit het noordoosten
Zicht 10 km of meer
geen wolken onder 1500 m en geen cumulonimbus

TAF: EGWU 011928Z 0121/0215 05008KT CAVOK

Waarnemingen en weersverwachtingen van meer dan 4000 vliegvelden (METAR en TAF).

De beschikbare stations zijn de gele en rode punten op de kaart.

Ga met uw muis naar het station om de naam te zien.

Klik dan om waarnemingen en weersverwachtingen te zien.

kaart wijzigen: klik op de groene knoppen met een zwart kruis om in te zoomen, op de groene knop met een streepje om uit te zoomen of op de groene pijlen voor aangrenzende kaarten.


METAR-TAF: